CYCD

Details ICAO CYCD (YCD)
Name Nanaimo
Region Canada
Timezone America/Vancouver (UTC-7.0)
Plans Departing 32
Arriving 28
Stats Elevation 93 ft / 28 m (AMSL)
Location 49.052367° -123.870111°
Runways 1
Magnetic Variation 16.275° E
Sunrise 2018-05-20 12:28:03 UTC / 2018-05-20 05:28:03 Local
Sunset 2018-05-21 03:58:51 UTC / 2018-05-20 20:58:51 Local
Advertisement - Login to hide

Runways

ID Width Length Bearing (true) Bearing (mag) Surface Threshold Offset Overrun Length
16 200 ft / 61 m 5,018 ft / 1,529 m 180.75° 164.47° Asphalt 0 ft / 0 m 0 ft / 0 m
34 200 ft / 61 m 5,018 ft / 1,529 m 0.75° 344.47° Asphalt 1,001 ft / 305 m 0 ft / 0 m

Map

Weather


0- 5 10 15 20 25 30 35+ Temperature / ° C

Clouds and Precipitation
Forecast for 2018-05-20 12:00 UTC. Updated an hour ago

Ground ~20,000 ft ~40,000 ft Winds

METAR

Not found

TAF

TAF CYCD 192338Z 2000/2004 14006KT P6SM SCT040 BKN140 TEMPO 2000/2004 P6SM -SHRA VCTS BKN040CB BECMG 2001/2003 VRB03KT RMK NXT FCST WILL BE ISSUED AT 201445Z

Frequencies

Unicom 122.10 MHz CTAF
Approach 133.95 MHz VICTORIA TRML
Warning: Do not use this data for real-world aviation or navigation. No guarantee of current accuracy is given.